sensor_id;sensor_type;location;lat;lon;timestamp;temperature;humidity
22917;DHT22;11624;53.250;7.456;2023-10-09T00:00:34;20.00;54.76
22917;DHT22;11624;53.250;7.456;2023-10-09T00:03:22;20.02;54.74
22917;DHT22;11624;53.250;7.456;2023-10-09T00:05:51;20.10;54.61
22917;DHT22;11624;53.250;7.456;2023-10-09T00:08:21;20.12;54.59
22917;DHT22;11624;53.250;7.456;2023-10-09T00:11:01;20.09;54.36
22917;DHT22;11624;53.250;7.456;2023-10-09T00:13:44;20.11;54.63
22917;DHT22;11624;53.250;7.456;2023-10-09T00:16:21;20.14;54.52
22917;DHT22;11624;53.250;7.456;2023-10-09T00:19:01;20.17;54.42
22917;DHT22;11624;53.250;7.456;2023-10-09T00:21:41;20.19;54.31
22917;DHT22;11624;53.250;7.456;2023-10-09T00:24:09;20.22;54.30
22917;DHT22;11624;53.250;7.456;2023-10-09T00:26:44;20.24;54.12
22917;DHT22;11624;53.250;7.456;2023-10-09T00:29:15;20.26;54.26
22917;DHT22;11624;53.250;7.456;2023-10-09T00:31:50;20.21;54.33
22917;DHT22;11624;53.250;7.456;2023-10-09T00:34:23;20.25;54.35
22917;DHT22;11624;53.250;7.456;2023-10-09T00:36:53;20.21;54.37
22917;DHT22;11624;53.250;7.456;2023-10-09T00:39:22;20.00;54.82
22917;DHT22;11624;53.250;7.456;2023-10-09T00:42:09;19.90;54.92
22917;DHT22;11624;53.250;7.456;2023-10-09T00:44:41;19.92;54.96
22917;DHT22;11624;53.250;7.456;2023-10-09T00:47:12;19.99;54.82
22917;DHT22;11624;53.250;7.456;2023-10-09T00:49:52;19.97;54.86
22917;DHT22;11624;53.250;7.456;2023-10-09T00:52:29;19.98;54.86
22917;DHT22;11624;53.250;7.456;2023-10-09T00:55:04;19.99;54.78
22917;DHT22;11624;53.250;7.456;2023-10-09T00:57:44;19.98;54.63
22917;DHT22;11624;53.250;7.456;2023-10-09T01:00:23;20.00;54.80
22917;DHT22;11624;53.250;7.456;2023-10-09T01:03:01;20.00;54.83
22917;DHT22;11624;53.250;7.456;2023-10-09T01:05:47;19.87;55.13
22917;DHT22;11624;53.250;7.456;2023-10-09T01:08:26;19.81;55.37
22917;DHT22;11624;53.250;7.456;2023-10-09T01:10:58;19.83;55.33
22917;DHT22;11624;53.250;7.456;2023-10-09T01:13:39;19.71;55.61
22917;DHT22;11624;53.250;7.456;2023-10-09T01:16:21;19.63;55.93
22917;DHT22;11624;53.250;7.456;2023-10-09T01:18:51;19.66;55.90
22917;DHT22;11624;53.250;7.456;2023-10-09T01:21:21;19.63;56.07
22917;DHT22;11624;53.250;7.456;2023-10-09T01:23:53;19.58;56.12
22917;DHT22;11624;53.250;7.456;2023-10-09T01:26:33;19.57;56.39
22917;DHT22;11624;53.250;7.456;2023-10-09T01:29:07;19.59;56.40
22917;DHT22;11624;53.250;7.456;2023-10-09T01:31:38;19.61;56.43
22917;DHT22;11624;53.250;7.456;2023-10-09T01:34:11;19.69;56.32
22917;DHT22;11624;53.250;7.456;2023-10-09T01:36:42;19.79;56.17
22917;DHT22;11624;53.250;7.456;2023-10-09T01:39:11;19.87;55.97
22917;DHT22;11624;53.250;7.456;2023-10-09T01:41:51;19.89;55.91
22917;DHT22;11624;53.250;7.456;2023-10-09T01:44:26;19.82;56.07
22917;DHT22;11624;53.250;7.456;2023-10-09T01:46:57;19.77;56.18
22917;DHT22;11624;53.250;7.456;2023-10-09T01:49:26;19.73;56.26
22917;DHT22;11624;53.250;7.456;2023-10-09T01:52:00;19.72;56.41
22917;DHT22;11624;53.250;7.456;2023-10-09T01:54:37;19.70;56.36
22917;DHT22;11624;53.250;7.456;2023-10-09T01:57:05;19.74;56.49
22917;DHT22;11624;53.250;7.456;2023-10-09T01:59:36;19.77;56.45
22917;DHT22;11624;53.250;7.456;2023-10-09T02:02:11;19.75;56.39
22917;DHT22;11624;53.250;7.456;2023-10-09T02:04:55;19.72;56.50
22917;DHT22;11624;53.250;7.456;2023-10-09T02:07:33;19.74;56.52
22917;DHT22;11624;53.250;7.456;2023-10-09T02:10:11;19.80;56.39
22917;DHT22;11624;53.250;7.456;2023-10-09T02:12:48;19.75;56.54
22917;DHT22;11624;53.250;7.456;2023-10-09T02:15:20;19.79;56.54
22917;DHT22;11624;53.250;7.456;2023-10-09T02:18:09;19.72;56.58
22917;DHT22;11624;53.250;7.456;2023-10-09T02:20:47;19.72;56.68
22917;DHT22;11624;53.250;7.456;2023-10-09T02:23:23;19.71;56.76
22917;DHT22;11624;53.250;7.456;2023-10-09T02:25:58;19.71;56.81
22917;DHT22;11624;53.250;7.456;2023-10-09T02:28:31;19.72;56.90
22917;DHT22;11624;53.250;7.456;2023-10-09T02:31:01;19.73;56.88
22917;DHT22;11624;53.250;7.456;2023-10-09T02:33:38;19.71;56.98
22917;DHT22;11624;53.250;7.456;2023-10-09T02:36:08;19.71;57.03
22917;DHT22;11624;53.250;7.456;2023-10-09T02:38:37;19.74;57.05
22917;DHT22;11624;53.250;7.456;2023-10-09T02:41:09;19.65;57.18
22917;DHT22;11624;53.250;7.456;2023-10-09T02:43:50;19.67;57.26
22917;DHT22;11624;53.250;7.456;2023-10-09T02:46:22;19.70;57.24
22917;DHT22;11624;53.250;7.456;2023-10-09T02:48:57;19.67;57.32
22917;DHT22;11624;53.250;7.456;2023-10-09T02:51:26;19.65;57.42
22917;DHT22;11624;53.250;7.456;2023-10-09T02:54:08;19.63;57.42
22917;DHT22;11624;53.250;7.456;2023-10-09T02:56:54;19.56;57.66
22917;DHT22;11624;53.250;7.456;2023-10-09T02:59:23;19.56;57.89
22917;DHT22;11624;53.250;7.456;2023-10-09T03:01:52;19.61;57.72
22917;DHT22;11624;53.250;7.456;2023-10-09T03:04:21;19.69;57.66
22917;DHT22;11624;53.250;7.456;2023-10-09T03:06:51;19.72;57.61
22917;DHT22;11624;53.250;7.456;2023-10-09T03:09:24;19.69;57.74
22917;DHT22;11624;53.250;7.456;2023-10-09T03:11:58;19.67;57.71
22917;DHT22;11624;53.250;7.456;2023-10-09T03:14:32;19.69;57.82
22917;DHT22;11624;53.250;7.456;2023-10-09T03:17:02;19.71;57.80
22917;DHT22;11624;53.250;7.456;2023-10-09T03:19:32;19.77;57.69
22917;DHT22;11624;53.250;7.456;2023-10-09T03:22:05;19.79;57.67
22917;DHT22;11624;53.250;7.456;2023-10-09T03:24:37;19.77;57.77
22917;DHT22;11624;53.250;7.456;2023-10-09T03:27:10;19.80;57.74
22917;DHT22;11624;53.250;7.456;2023-10-09T03:29:41;19.83;57.74
22917;DHT22;11624;53.250;7.456;2023-10-09T03:32:16;19.80;57.84
22917;DHT22;11624;53.250;7.456;2023-10-09T03:34:46;19.80;57.93
22917;DHT22;11624;53.250;7.456;2023-10-09T03:37:18;19.81;57.93
22917;DHT22;11624;53.250;7.456;2023-10-09T03:40:01;19.79;58.06
22917;DHT22;11624;53.250;7.456;2023-10-09T03:42:35;19.83;58.04
22917;DHT22;11624;53.250;7.456;2023-10-09T03:45:06;19.84;58.09
22917;DHT22;11624;53.250;7.456;2023-10-09T03:47:40;19.84;58.14
22917;DHT22;11624;53.250;7.456;2023-10-09T03:50:10;19.88;58.07
22917;DHT22;11624;53.250;7.456;2023-10-09T03:52:51;19.86;58.17
22917;DHT22;11624;53.250;7.456;2023-10-09T03:55:22;19.88;58.24
22917;DHT22;11624;53.250;7.456;2023-10-09T03:57:56;19.88;58.25
22917;DHT22;11624;53.250;7.456;2023-10-09T04:00:28;19.86;58.42
22917;DHT22;11624;53.250;7.456;2023-10-09T04:02:58;19.85;58.58
22917;DHT22;11624;53.250;7.456;2023-10-09T04:05:27;19.86;58.64
22917;DHT22;11624;53.250;7.456;2023-10-09T04:07:56;19.84;58.84
22917;DHT22;11624;53.250;7.456;2023-10-09T04:10:26;19.82;58.95
22917;DHT22;11624;53.250;7.456;2023-10-09T04:13:23;19.82;59.02
22917;DHT22;11624;53.250;7.456;2023-10-09T04:16:00;19.83;59.17
22917;DHT22;11624;53.250;7.456;2023-10-09T04:18:36;19.81;59.35
22917;DHT22;11624;53.250;7.456;2023-10-09T04:21:07;19.83;59.42
22917;DHT22;11624;53.250;7.456;2023-10-09T04:23:47;19.89;59.41
22917;DHT22;11624;53.250;7.456;2023-10-09T04:26:32;19.89;59.48
22917;DHT22;11624;53.250;7.456;2023-10-09T04:29:05;19.89;59.49
22917;DHT22;11624;53.250;7.456;2023-10-09T04:31:37;19.94;59.64
22917;DHT22;11624;53.250;7.456;2023-10-09T04:34:06;19.95;59.67
22917;DHT22;11624;53.250;7.456;2023-10-09T04:36:55;19.89;59.93
22917;DHT22;11624;53.250;7.456;2023-10-09T04:39:28;19.83;60.30
22917;DHT22;11624;53.250;7.456;2023-10-09T04:42:14;19.82;60.40
22917;DHT22;11624;53.250;7.456;2023-10-09T04:45:06;19.84;60.35
22917;DHT22;11624;53.250;7.456;2023-10-09T04:48:01;19.87;60.50
22917;DHT22;11624;53.250;7.456;2023-10-09T04:50:34;19.83;60.90
22917;DHT22;11624;53.250;7.456;2023-10-09T04:53:35;19.86;60.99
22917;DHT22;11624;53.250;7.456;2023-10-09T04:56:11;19.88;60.93
22917;DHT22;11624;53.250;7.456;2023-10-09T04:58:43;19.88;61.12
22917;DHT22;11624;53.250;7.456;2023-10-09T05:01:14;19.92;61.02
22917;DHT22;11624;53.250;7.456;2023-10-09T05:03:44;19.96;61.18
22917;DHT22;11624;53.250;7.456;2023-10-09T05:06:13;19.99;61.26
22917;DHT22;11624;53.250;7.456;2023-10-09T05:09:10;19.97;61.39
22917;DHT22;11624;53.250;7.456;2023-10-09T05:11:42;19.97;61.59
22917;DHT22;11624;53.250;7.456;2023-10-09T05:14:36;20.07;61.35
22917;DHT22;11624;53.250;7.456;2023-10-09T05:17:16;20.15;61.15
22917;DHT22;11624;53.250;7.456;2023-10-09T05:19:43;20.20;61.15
22917;DHT22;11624;53.250;7.456;2023-10-09T05:22:42;20.21;61.09
22917;DHT22;11624;53.250;7.456;2023-10-09T05:25:25;20.18;61.29
22917;DHT22;11624;53.250;7.456;2023-10-09T05:28:22;20.16;61.33
22917;DHT22;11624;53.250;7.456;2023-10-09T05:30:58;20.15;61.47
22917;DHT22;11624;53.250;7.456;2023-10-09T05:33:38;20.13;61.50
22917;DHT22;11624;53.250;7.456;2023-10-09T05:36:06;20.10;61.83
22917;DHT22;11624;53.250;7.456;2023-10-09T05:38:59;20.12;61.92
22917;DHT22;11624;53.250;7.456;2023-10-09T05:41:44;20.14;61.93
22917;DHT22;11624;53.250;7.456;2023-10-09T05:44:19;20.18;61.90
22917;DHT22;11624;53.250;7.456;2023-10-09T05:47:05;20.20;62.04
22917;DHT22;11624;53.250;7.456;2023-10-09T05:50:04;20.24;61.97
22917;DHT22;11624;53.250;7.456;2023-10-09T05:52:59;20.30;62.11
22917;DHT22;11624;53.250;7.456;2023-10-09T05:55:44;20.28;62.31
22917;DHT22;11624;53.250;7.456;2023-10-09T05:58:30;20.35;62.20
22917;DHT22;11624;53.250;7.456;2023-10-09T06:01:30;20.37;62.19
22917;DHT22;11624;53.250;7.456;2023-10-09T06:04:16;20.41;62.17
22917;DHT22;11624;53.250;7.456;2023-10-09T06:06:47;20.41;62.18
22917;DHT22;11624;53.250;7.456;2023-10-09T06:09:24;20.45;62.27
22917;DHT22;11624;53.250;7.456;2023-10-09T06:12:18;20.41;62.53
22917;DHT22;11624;53.250;7.456;2023-10-09T06:15:20;20.48;62.42
22917;DHT22;11624;53.250;7.456;2023-10-09T06:18:13;20.54;62.34
22917;DHT22;11624;53.250;7.456;2023-10-09T06:20:59;20.58;62.41
22917;DHT22;11624;53.250;7.456;2023-10-09T06:23:38;20.61;62.47
22917;DHT22;11624;53.250;7.456;2023-10-09T06:26:36;20.64;62.65
22917;DHT22;11624;53.250;7.456;2023-10-09T06:29:04;20.70;62.70
22917;DHT22;11624;53.250;7.456;2023-10-09T06:32:01;20.68;62.91
22917;DHT22;11624;53.250;7.456;2023-10-09T06:34:53;20.76;62.82
22917;DHT22;11624;53.250;7.456;2023-10-09T06:37:24;20.80;63.04
22917;DHT22;11624;53.250;7.456;2023-10-09T06:40:26;20.84;63.22
22917;DHT22;11624;53.250;7.456;2023-10-09T06:43:12;20.89;63.52
22917;DHT22;11624;53.250;7.456;2023-10-09T06:45:44;21.00;63.49
22917;DHT22;11624;53.250;7.456;2023-10-09T06:48:13;21.11;63.44
22917;DHT22;11624;53.250;7.456;2023-10-09T06:51:02;21.21;63.00
22917;DHT22;11624;53.250;7.456;2023-10-09T06:53:35;21.23;63.49
22917;DHT22;11624;53.250;7.456;2023-10-09T06:56:25;21.28;63.26
22917;DHT22;11624;53.250;7.456;2023-10-09T06:59:14;21.34;63.34
22917;DHT22;11624;53.250;7.456;2023-10-09T07:01:44;21.39;63.35
22917;DHT22;11624;53.250;7.456;2023-10-09T07:04:14;21.45;63.35
22917;DHT22;11624;53.250;7.456;2023-10-09T07:07:07;21.48;63.34
22917;DHT22;11624;53.250;7.456;2023-10-09T07:09:40;21.52;63.37
22917;DHT22;11624;53.250;7.456;2023-10-09T07:12:11;21.52;63.50
22917;DHT22;11624;53.250;7.456;2023-10-09T07:14:47;21.57;63.51
22917;DHT22;11624;53.250;7.456;2023-10-09T07:17:44;21.62;63.49
22917;DHT22;11624;53.250;7.456;2023-10-09T07:20:13;21.59;63.75
22917;DHT22;11624;53.250;7.456;2023-10-09T07:22:43;21.63;63.64
22917;DHT22;11624;53.250;7.456;2023-10-09T07:25:23;21.66;63.67
22917;DHT22;11624;53.250;7.456;2023-10-09T07:28:09;21.66;63.56
22917;DHT22;11624;53.250;7.456;2023-10-09T07:30:56;21.73;63.61
22917;DHT22;11624;53.250;7.456;2023-10-09T07:33:27;21.76;63.48
22917;DHT22;11624;53.250;7.456;2023-10-09T07:36:19;21.76;63.56
22917;DHT22;11624;53.250;7.456;2023-10-09T07:39:02;21.84;63.37
22917;DHT22;11624;53.250;7.456;2023-10-09T07:41:40;21.85;63.38
22917;DHT22;11624;53.250;7.456;2023-10-09T07:44:24;21.87;63.30
22917;DHT22;11624;53.250;7.456;2023-10-09T07:47:13;21.89;63.37
22917;DHT22;11624;53.250;7.456;2023-10-09T07:49:45;21.92;63.34
22917;DHT22;11624;53.250;7.456;2023-10-09T07:52:21;21.98;63.12
22917;DHT22;11624;53.250;7.456;2023-10-09T07:54:53;22.03;63.11
22917;DHT22;11624;53.250;7.456;2023-10-09T07:57:29;22.06;63.14
22917;DHT22;11624;53.250;7.456;2023-10-09T08:00:08;22.11;62.97
22917;DHT22;11624;53.250;7.456;2023-10-09T08:03:00;22.10;63.15
22917;DHT22;11624;53.250;7.456;2023-10-09T08:05:30;22.19;62.99
22917;DHT22;11624;53.250;7.456;2023-10-09T08:08:01;22.21;63.03
22917;DHT22;11624;53.250;7.456;2023-10-09T08:11:07;22.23;62.94
22917;DHT22;11624;53.250;7.456;2023-10-09T08:13:53;22.32;62.84
22917;DHT22;11624;53.250;7.456;2023-10-09T08:16:31;22.33;62.64
22917;DHT22;11624;53.250;7.456;2023-10-09T08:19:05;22.33;62.78
22917;DHT22;11624;53.250;7.456;2023-10-09T08:21:59;22.34;62.78
22917;DHT22;11624;53.250;7.456;2023-10-09T08:25:05;22.36;62.80
22917;DHT22;11624;53.250;7.456;2023-10-09T08:27:34;22.38;62.90
22917;DHT22;11624;53.250;7.456;2023-10-09T08:30:23;22.43;62.64
22917;DHT22;11624;53.250;7.456;2023-10-09T08:33:10;22.43;62.61
22917;DHT22;11624;53.250;7.456;2023-10-09T08:35:58;22.43;62.63
22917;DHT22;11624;53.250;7.456;2023-10-09T08:38:32;22.44;62.66
22917;DHT22;11624;53.250;7.456;2023-10-09T08:41:08;22.44;62.47
22917;DHT22;11624;53.250;7.456;2023-10-09T08:43:48;22.46;62.50
22917;DHT22;11624;53.250;7.456;2023-10-09T08:46:20;22.44;62.76
22917;DHT22;11624;53.250;7.456;2023-10-09T08:48:50;22.49;62.56
22917;DHT22;11624;53.250;7.456;2023-10-09T08:51:19;22.46;62.62
22917;DHT22;11624;53.250;7.456;2023-10-09T08:53:48;22.47;62.65
22917;DHT22;11624;53.250;7.456;2023-10-09T08:56:17;22.46;62.47
22917;DHT22;11624;53.250;7.456;2023-10-09T08:58:50;22.41;62.89
22917;DHT22;11624;53.250;7.456;2023-10-09T09:01:20;22.42;62.78
22917;DHT22;11624;53.250;7.456;2023-10-09T09:03:51;22.44;62.85
22917;DHT22;11624;53.250;7.456;2023-10-09T09:06:23;22.48;62.82
22917;DHT22;11624;53.250;7.456;2023-10-09T09:08:52;22.50;62.88
22917;DHT22;11624;53.250;7.456;2023-10-09T09:11:41;22.51;62.59
22917;DHT22;11624;53.250;7.456;2023-10-09T09:14:15;22.58;62.85
22917;DHT22;11624;53.250;7.456;2023-10-09T09:16:49;22.62;62.87
22917;DHT22;11624;53.250;7.456;2023-10-09T09:19:30;22.64;62.40
22917;DHT22;11624;53.250;7.456;2023-10-09T09:21:59;22.66;62.86
22917;DHT22;11624;53.250;7.456;2023-10-09T09:24:39;22.68;62.78
22917;DHT22;11624;53.250;7.456;2023-10-09T09:27:12;22.66;62.86
22917;DHT22;11624;53.250;7.456;2023-10-09T09:29:46;22.75;62.75
22917;DHT22;11624;53.250;7.456;2023-10-09T09:32:28;22.78;62.29
22917;DHT22;11624;53.250;7.456;2023-10-09T09:35:11;22.75;62.22
22917;DHT22;11624;53.250;7.456;2023-10-09T09:37:52;22.76;62.07
22917;DHT22;11624;53.250;7.456;2023-10-09T09:40:22;22.80;62.58
22917;DHT22;11624;53.250;7.456;2023-10-09T09:43:02;22.83;62.57
22917;DHT22;11624;53.250;7.456;2023-10-09T09:45:35;22.86;62.66
22917;DHT22;11624;53.250;7.456;2023-10-09T09:48:04;22.86;62.56
22917;DHT22;11624;53.250;7.456;2023-10-09T09:50:35;22.85;62.58
22917;DHT22;11624;53.250;7.456;2023-10-09T09:53:11;22.85;62.64
22917;DHT22;11624;53.250;7.456;2023-10-09T09:55:46;22.86;62.50
22917;DHT22;11624;53.250;7.456;2023-10-09T09:58:23;22.84;62.53
22917;DHT22;11624;53.250;7.456;2023-10-09T10:00:59;22.83;62.19
22917;DHT22;11624;53.250;7.456;2023-10-09T10:03:38;22.83;62.45
22917;DHT22;11624;53.250;7.456;2023-10-09T10:06:13;22.81;62.54
22917;DHT22;11624;53.250;7.456;2023-10-09T10:08:48;22.80;62.36
22917;DHT22;11624;53.250;7.456;2023-10-09T10:11:43;22.80;62.41
22917;DHT22;11624;53.250;7.456;2023-10-09T10:14:13;22.77;62.76
22917;DHT22;11624;53.250;7.456;2023-10-09T10:17:03;22.78;62.34
22917;DHT22;11624;53.250;7.456;2023-10-09T10:20:03;22.75;62.49
22917;DHT22;11624;53.250;7.456;2023-10-09T10:22:51;22.75;62.79
22917;DHT22;11624;53.250;7.456;2023-10-09T10:25:33;22.77;62.05
22917;DHT22;11624;53.250;7.456;2023-10-09T10:28:16;22.75;61.99
22917;DHT22;11624;53.250;7.456;2023-10-09T10:30:55;22.72;62.69
22917;DHT22;11624;53.250;7.456;2023-10-09T10:33:27;22.71;62.85
22917;DHT22;11624;53.250;7.456;2023-10-09T10:36:19;22.65;63.00
22917;DHT22;11624;53.250;7.456;2023-10-09T10:39:00;22.66;62.58
22917;DHT22;11624;53.250;7.456;2023-10-09T10:41:37;22.65;63.05
22917;DHT22;11624;53.250;7.456;2023-10-09T10:44:28;22.57;63.01
22917;DHT22;11624;53.250;7.456;2023-10-09T10:47:05;22.60;63.36
22917;DHT22;11624;53.250;7.456;2023-10-09T10:49:49;22.67;63.19
22917;DHT22;11624;53.250;7.456;2023-10-09T10:52:26;22.64;63.44
22917;DHT22;11624;53.250;7.456;2023-10-09T10:55:13;22.63;63.40
22917;DHT22;11624;53.250;7.456;2023-10-09T10:58:01;22.63;63.56
22917;DHT22;11624;53.250;7.456;2023-10-09T11:00:37;22.62;63.66
22917;DHT22;11624;53.250;7.456;2023-10-09T11:03:25;22.58;63.95
22917;DHT22;11624;53.250;7.456;2023-10-09T11:06:03;22.60;64.00
22917;DHT22;11624;53.250;7.456;2023-10-09T11:08:43;22.69;63.78
22917;DHT22;11624;53.250;7.456;2023-10-09T11:11:23;22.76;63.88
22917;DHT22;11624;53.250;7.456;2023-10-09T11:14:08;22.72;63.77
22917;DHT22;11624;53.250;7.456;2023-10-09T11:16:42;22.79;64.27
22917;DHT22;11624;53.250;7.456;2023-10-09T11:19:12;22.88;64.30
22917;DHT22;11624;53.250;7.456;2023-10-09T11:21:51;23.05;64.05
22917;DHT22;11624;53.250;7.456;2023-10-09T11:24:27;23.14;64.11
22917;DHT22;11624;53.250;7.456;2023-10-09T11:27:02;23.41;63.95
22917;DHT22;11624;53.250;7.456;2023-10-09T11:29:34;23.52;63.41
22917;DHT22;11624;53.250;7.456;2023-10-09T11:32:17;23.65;62.98
22917;DHT22;11624;53.250;7.456;2023-10-09T11:34:47;23.75;62.28
22917;DHT22;11624;53.250;7.456;2023-10-09T11:37:20;23.79;61.76
22917;DHT22;11624;53.250;7.456;2023-10-09T11:40:06;23.81;60.74
22917;DHT22;11624;53.250;7.456;2023-10-09T11:42:51;23.66;60.81
22917;DHT22;11624;53.250;7.456;2023-10-09T11:45:26;23.64;60.67
22917;DHT22;11624;53.250;7.456;2023-10-09T11:47:58;23.62;60.75
22917;DHT22;11624;53.250;7.456;2023-10-09T11:50:39;23.58;60.43
22917;DHT22;11624;53.250;7.456;2023-10-09T11:53:11;23.52;60.21
22917;DHT22;11624;53.250;7.456;2023-10-09T11:56:00;23.47;60.24
22917;DHT22;11624;53.250;7.456;2023-10-09T11:58:30;23.51;60.47
22917;DHT22;11624;53.250;7.456;2023-10-09T12:00:59;23.59;60.40
22917;DHT22;11624;53.250;7.456;2023-10-09T12:03:33;23.68;60.38
22917;DHT22;11624;53.250;7.456;2023-10-09T12:06:02;23.80;60.11
22917;DHT22;11624;53.250;7.456;2023-10-09T12:08:34;23.82;59.61
22917;DHT22;11624;53.250;7.456;2023-10-09T12:11:03;23.79;59.38
22917;DHT22;11624;53.250;7.456;2023-10-09T12:13:38;23.76;59.15
22917;DHT22;11624;53.250;7.456;2023-10-09T12:16:06;23.76;59.23
22917;DHT22;11624;53.250;7.456;2023-10-09T12:18:37;23.81;59.29
22917;DHT22;11624;53.250;7.456;2023-10-09T12:21:06;23.76;59.27
22917;DHT22;11624;53.250;7.456;2023-10-09T12:23:35;23.69;59.38
22917;DHT22;11624;53.250;7.456;2023-10-09T12:26:04;23.80;59.02
22917;DHT22;11624;53.250;7.456;2023-10-09T12:28:33;23.83;59.10
22917;DHT22;11624;53.250;7.456;2023-10-09T12:31:03;23.84;59.06
22917;DHT22;11624;53.250;7.456;2023-10-09T12:33:31;23.85;58.92
22917;DHT22;11624;53.250;7.456;2023-10-09T12:36:00;23.85;58.88
22917;DHT22;11624;53.250;7.456;2023-10-09T12:38:29;23.85;58.92
22917;DHT22;11624;53.250;7.456;2023-10-09T12:41:03;23.88;58.78
22917;DHT22;11624;53.250;7.456;2023-10-09T12:43:46;23.85;58.48
22917;DHT22;11624;53.250;7.456;2023-10-09T12:46:16;23.79;58.58
22917;DHT22;11624;53.250;7.456;2023-10-09T12:48:45;23.76;58.54
22917;DHT22;11624;53.250;7.456;2023-10-09T12:51:14;23.79;58.63
22917;DHT22;11624;53.250;7.456;2023-10-09T12:53:45;23.68;58.70
22917;DHT22;11624;53.250;7.456;2023-10-09T12:56:15;23.68;58.33
22917;DHT22;11624;53.250;7.456;2023-10-09T12:58:45;23.72;58.28
22917;DHT22;11624;53.250;7.456;2023-10-09T13:01:22;23.68;58.12
22917;DHT22;11624;53.250;7.456;2023-10-09T13:03:50;23.68;58.09
22917;DHT22;11624;53.250;7.456;2023-10-09T13:06:19;23.61;57.92
22917;DHT22;11624;53.250;7.456;2023-10-09T13:08:51;23.59;57.96
22917;DHT22;11624;53.250;7.456;2023-10-09T13:11:20;23.64;57.80
22917;DHT22;11624;53.250;7.456;2023-10-09T13:13:49;23.55;58.02
22917;DHT22;11624;53.250;7.456;2023-10-09T13:16:19;23.50;58.08
22917;DHT22;11624;53.250;7.456;2023-10-09T13:18:53;23.49;57.99
22917;DHT22;11624;53.250;7.456;2023-10-09T13:21:23;23.45;58.03
22917;DHT22;11624;53.250;7.456;2023-10-09T13:23:53;23.44;57.91
22917;DHT22;11624;53.250;7.456;2023-10-09T13:26:22;23.44;57.91
22917;DHT22;11624;53.250;7.456;2023-10-09T13:29:01;23.42;57.94
22917;DHT22;11624;53.250;7.456;2023-10-09T13:31:31;23.38;57.96
22917;DHT22;11624;53.250;7.456;2023-10-09T13:34:04;23.29;57.99
22917;DHT22;11624;53.250;7.456;2023-10-09T13:36:36;23.30;58.07
22917;DHT22;11624;53.250;7.456;2023-10-09T13:39:06;23.37;58.05
22917;DHT22;11624;53.250;7.456;2023-10-09T13:41:50;23.34;58.01
22917;DHT22;11624;53.250;7.456;2023-10-09T13:44:26;23.27;58.16
22917;DHT22;11624;53.250;7.456;2023-10-09T13:46:55;23.27;58.23
22917;DHT22;11624;53.250;7.456;2023-10-09T13:49:25;23.26;58.16
22917;DHT22;11624;53.250;7.456;2023-10-09T13:51:58;23.24;58.31
22917;DHT22;11624;53.250;7.456;2023-10-09T13:54:27;23.26;58.13
22917;DHT22;11624;53.250;7.456;2023-10-09T13:57:07;23.26;58.06
22917;DHT22;11624;53.250;7.456;2023-10-09T13:59:38;23.24;58.05
22917;DHT22;11624;53.250;7.456;2023-10-09T14:02:10;23.25;57.81
22917;DHT22;11624;53.250;7.456;2023-10-09T14:04:47;23.25;57.64
22917;DHT22;11624;53.250;7.456;2023-10-09T14:07:17;23.23;57.55
22917;DHT22;11624;53.250;7.456;2023-10-09T14:09:47;23.31;57.29
22917;DHT22;11624;53.250;7.456;2023-10-09T14:12:35;23.28;57.41
22917;DHT22;11624;53.250;7.456;2023-10-09T14:15:08;23.31;57.42
22917;DHT22;11624;53.250;7.456;2023-10-09T14:17:44;23.25;57.40
22917;DHT22;11624;53.250;7.456;2023-10-09T14:20:15;23.12;57.52
22917;DHT22;11624;53.250;7.456;2023-10-09T14:22:59;22.98;58.15
22917;DHT22;11624;53.250;7.456;2023-10-09T14:25:34;23.00;58.07
22917;DHT22;11624;53.250;7.456;2023-10-09T14:28:05;22.98;58.25
22917;DHT22;11624;53.250;7.456;2023-10-09T14:30:35;22.96;58.46
22917;DHT22;11624;53.250;7.456;2023-10-09T14:33:09;23.05;58.33
22917;DHT22;11624;53.250;7.456;2023-10-09T14:35:42;23.09;58.06
22917;DHT22;11624;53.250;7.456;2023-10-09T14:38:12;23.12;57.80
22917;DHT22;11624;53.250;7.456;2023-10-09T14:40:44;23.05;57.34
22917;DHT22;11624;53.250;7.456;2023-10-09T14:43:12;23.06;57.55
22917;DHT22;11624;53.250;7.456;2023-10-09T14:45:47;23.12;57.45
22917;DHT22;11624;53.250;7.456;2023-10-09T14:48:17;23.17;57.31
22917;DHT22;11624;53.250;7.456;2023-10-09T14:50:48;23.12;57.57
22917;DHT22;11624;53.250;7.456;2023-10-09T14:53:20;23.18;57.44
22917;DHT22;11624;53.250;7.456;2023-10-09T14:55:54;23.16;57.64
22917;DHT22;11624;53.250;7.456;2023-10-09T14:58:23;23.21;58.05
22917;DHT22;11624;53.250;7.456;2023-10-09T15:00:52;23.18;58.00
22917;DHT22;11624;53.250;7.456;2023-10-09T15:03:21;23.20;57.80
22917;DHT22;11624;53.250;7.456;2023-10-09T15:05:51;23.11;58.12
22917;DHT22;11624;53.250;7.456;2023-10-09T15:08:21;23.12;58.17
22917;DHT22;11624;53.250;7.456;2023-10-09T15:10:50;23.18;58.06
22917;DHT22;11624;53.250;7.456;2023-10-09T15:13:23;23.16;58.03
22917;DHT22;11624;53.250;7.456;2023-10-09T15:15:55;23.14;57.73
22917;DHT22;11624;53.250;7.456;2023-10-09T15:18:24;23.14;58.09
22917;DHT22;11624;53.250;7.456;2023-10-09T15:20:53;23.18;58.00
22917;DHT22;11624;53.250;7.456;2023-10-09T15:23:22;23.14;57.96
22917;DHT22;11624;53.250;7.456;2023-10-09T15:25:50;23.14;57.84
22917;DHT22;11624;53.250;7.456;2023-10-09T15:28:22;23.15;57.60
22917;DHT22;11624;53.250;7.456;2023-10-09T15:30:50;23.15;57.42
22917;DHT22;11624;53.250;7.456;2023-10-09T15:33:19;23.13;57.23
22917;DHT22;11624;53.250;7.456;2023-10-09T15:35:49;23.10;57.16
22917;DHT22;11624;53.250;7.456;2023-10-09T15:38:19;23.07;57.13
22917;DHT22;11624;53.250;7.456;2023-10-09T15:40:48;23.06;57.00
22917;DHT22;11624;53.250;7.456;2023-10-09T15:43:16;22.95;57.10
22917;DHT22;11624;53.250;7.456;2023-10-09T15:45:45;22.94;57.16
22917;DHT22;11624;53.250;7.456;2023-10-09T15:48:15;22.88;57.13
22917;DHT22;11624;53.250;7.456;2023-10-09T15:50:49;22.84;57.17
22917;DHT22;11624;53.250;7.456;2023-10-09T15:53:20;22.79;57.27
22917;DHT22;11624;53.250;7.456;2023-10-09T15:55:51;22.81;57.39
22917;DHT22;11624;53.250;7.456;2023-10-09T15:58:24;22.81;57.39
22917;DHT22;11624;53.250;7.456;2023-10-09T16:00:53;22.81;57.59
22917;DHT22;11624;53.250;7.456;2023-10-09T16:03:21;22.79;57.68
22917;DHT22;11624;53.250;7.456;2023-10-09T16:05:51;22.80;57.79
22917;DHT22;11624;53.250;7.456;2023-10-09T16:08:21;22.87;57.58
22917;DHT22;11624;53.250;7.456;2023-10-09T16:10:49;22.88;57.66
22917;DHT22;11624;53.250;7.456;2023-10-09T16:13:18;22.94;57.62
22917;DHT22;11624;53.250;7.456;2023-10-09T16:15:48;22.84;57.67
22917;DHT22;11624;53.250;7.456;2023-10-09T16:18:16;22.83;57.72
22917;DHT22;11624;53.250;7.456;2023-10-09T16:20:47;22.79;57.77
22917;DHT22;11624;53.250;7.456;2023-10-09T16:23:16;22.75;58.02
22917;DHT22;11624;53.250;7.456;2023-10-09T16:25:48;22.79;57.88